Portada
METAR-TAF:

METAR-TAF

Aeroports :

Vanua Lava, Vanuatu

latitud: 13-51-06S, longitud: 167-32-13E, altitud: 2 m

Observació

L'informe es va fer fa 3 hores i 4 minuts, a les 06:00 UTC
Vent 5 kt del Est/Sud-Est
Temperatura 28°C
Humitat 79%
Pressió
Visibilitat 10 km o més
Cel ennuvolat a una alçada de 2000 ft

METAR: NVSC 190600Z 11005KT 9999 BKN020 28/24 Q////

Hora: 20:04 (09:04 UTC)

Pronòstic

L'informe es va fer fa 4 hores i 34 minuts, a les 04:30 UTC
Pronòstic vàlid del 19 a les 06 UTC al 20 a les 06 UTC
Vent 5 kt del Est/Sud-Est
Visibilitat 10 km o més
Núvols disperses a una alçada de 2000 ft
Probabilitat 40%
entre IN i TE UTC
Visibilitat: 9000 m
Escasses núvols a una alçada de 1000 ft
Cel ennuvolat a una alçada de 1800 ft
xàfecs de pluja

TAF: NVSC 190430Z 1906/2006 12005KT 9999 SCT020 PROB40 INTER 1906/1912 9000 -SHRA FEW010 BKN018

Observacions i pronòstics meteorològics de més de 4000 aeroports (METAR i TAF).

Les estacions disponibles són els punts grocs i vermells al mapa.

Posi el ratolí al punt desitjat per veure el nom de l'estació.

Feu clic per veure les observacions i els pronòstics meteorològics.

Per canviar el mapa: feu clic els botons verds amb una creu de color negre per apropar; al botó verd amb un guió per allunyar la imatge; o en les fletxes verdes per a mapes adjacents.


METAR-TAF: